sensor_id;sensor_type;location;lat;lon;timestamp;temperature;humidity
19164;DHT22;9714;51.208;4.242;2023-11-19T00:00:50;14.70;99.90
19164;DHT22;9714;51.208;4.242;2023-11-19T00:03:17;14.60;99.90
19164;DHT22;9714;51.208;4.242;2023-11-19T00:05:45;14.60;99.90
19164;DHT22;9714;51.208;4.242;2023-11-19T00:08:13;14.60;99.90
19164;DHT22;9714;51.208;4.242;2023-11-19T00:10:42;14.60;99.90
19164;DHT22;9714;51.208;4.242;2023-11-19T00:13:09;14.60;99.90
19164;DHT22;9714;51.208;4.242;2023-11-19T00:15:37;14.70;99.90
19164;DHT22;9714;51.208;4.242;2023-11-19T00:18:05;14.70;99.90
19164;DHT22;9714;51.208;4.242;2023-11-19T00:20:51;14.70;99.90
19164;DHT22;9714;51.208;4.242;2023-11-19T00:26:03;14.80;99.90
19164;DHT22;9714;51.208;4.242;2023-11-19T00:28:32;14.80;99.90
19164;DHT22;9714;51.208;4.242;2023-11-19T00:31:00;14.80;99.90
19164;DHT22;9714;51.208;4.242;2023-11-19T00:33:29;14.80;99.90
19164;DHT22;9714;51.208;4.242;2023-11-19T00:35:59;14.60;99.90
19164;DHT22;9714;51.208;4.242;2023-11-19T00:38:28;14.70;99.90
19164;DHT22;9714;51.208;4.242;2023-11-19T00:40:58;14.60;99.90
19164;DHT22;9714;51.208;4.242;2023-11-19T00:43:29;14.80;99.90
19164;DHT22;9714;51.208;4.242;2023-11-19T00:45:57;14.70;99.90
19164;DHT22;9714;51.208;4.242;2023-11-19T00:48:24;14.70;99.90
19164;DHT22;9714;51.208;4.242;2023-11-19T00:50:52;14.80;99.90
19164;DHT22;9714;51.208;4.242;2023-11-19T00:53:19;14.80;99.90
19164;DHT22;9714;51.208;4.242;2023-11-19T00:55:47;14.70;99.90
19164;DHT22;9714;51.208;4.242;2023-11-19T00:58:15;14.90;99.90
19164;DHT22;9714;51.208;4.242;2023-11-19T01:00:44;14.90;99.90
19164;DHT22;9714;51.208;4.242;2023-11-19T01:03:11;14.90;99.90
19164;DHT22;9714;51.208;4.242;2023-11-19T01:05:38;14.70;99.90
19164;DHT22;9714;51.208;4.242;2023-11-19T01:08:06;14.60;99.90
19164;DHT22;9714;51.208;4.242;2023-11-19T01:10:33;14.70;99.90
19164;DHT22;9714;51.208;4.242;2023-11-19T01:13:00;14.70;99.90
19164;DHT22;9714;51.208;4.242;2023-11-19T01:15:30;14.60;99.90
19164;DHT22;9714;51.208;4.242;2023-11-19T01:17:59;14.60;99.90
19164;DHT22;9714;51.208;4.242;2023-11-19T01:20:27;14.60;99.90
19164;DHT22;9714;51.208;4.242;2023-11-19T01:22:54;14.60;99.90
19164;DHT22;9714;51.208;4.242;2023-11-19T01:25:22;14.50;99.90
19164;DHT22;9714;51.208;4.242;2023-11-19T01:27:49;14.50;99.90
19164;DHT22;9714;51.208;4.242;2023-11-19T01:30:16;14.50;99.90
19164;DHT22;9714;51.208;4.242;2023-11-19T01:32:45;14.60;99.90
19164;DHT22;9714;51.208;4.242;2023-11-19T01:35:14;14.50;99.90
19164;DHT22;9714;51.208;4.242;2023-11-19T01:37:40;14.40;99.90
19164;DHT22;9714;51.208;4.242;2023-11-19T01:40:08;14.30;99.90
19164;DHT22;9714;51.208;4.242;2023-11-19T01:42:38;14.30;99.90
19164;DHT22;9714;51.208;4.242;2023-11-19T01:45:06;14.40;99.90
19164;DHT22;9714;51.208;4.242;2023-11-19T01:47:37;14.40;99.90
19164;DHT22;9714;51.208;4.242;2023-11-19T01:50:31;14.30;99.90
19164;DHT22;9714;51.208;4.242;2023-11-19T01:53:01;14.20;99.90
19164;DHT22;9714;51.208;4.242;2023-11-19T01:55:31;14.20;99.90
19164;DHT22;9714;51.208;4.242;2023-11-19T01:58:02;14.20;99.90
19164;DHT22;9714;51.208;4.242;2023-11-19T02:00:29;14.30;99.90
19164;DHT22;9714;51.208;4.242;2023-11-19T02:06:18;14.20;99.90
19164;DHT22;9714;51.208;4.242;2023-11-19T02:08:45;14.30;99.90
19164;DHT22;9714;51.208;4.242;2023-11-19T02:11:12;14.40;99.90
19164;DHT22;9714;51.208;4.242;2023-11-19T02:13:40;14.40;99.90
19164;DHT22;9714;51.208;4.242;2023-11-19T02:16:09;14.50;99.90
19164;DHT22;9714;51.208;4.242;2023-11-19T02:18:37;14.40;99.90
19164;DHT22;9714;51.208;4.242;2023-11-19T02:21:04;14.40;99.90
19164;DHT22;9714;51.208;4.242;2023-11-19T02:23:33;14.20;99.90
19164;DHT22;9714;51.208;4.242;2023-11-19T02:26:12;14.20;99.90
19164;DHT22;9714;51.208;4.242;2023-11-19T02:28:42;14.30;99.90
19164;DHT22;9714;51.208;4.242;2023-11-19T02:31:10;14.40;99.90
19164;DHT22;9714;51.208;4.242;2023-11-19T02:33:38;14.30;99.90
19164;DHT22;9714;51.208;4.242;2023-11-19T02:36:06;14.40;99.90
19164;DHT22;9714;51.208;4.242;2023-11-19T02:38:36;14.40;99.90
19164;DHT22;9714;51.208;4.242;2023-11-19T02:41:04;14.30;99.90
19164;DHT22;9714;51.208;4.242;2023-11-19T02:43:32;14.20;99.90
19164;DHT22;9714;51.208;4.242;2023-11-19T02:46:02;14.20;99.90
19164;DHT22;9714;51.208;4.242;2023-11-19T02:48:32;14.10;99.90
19164;DHT22;9714;51.208;4.242;2023-11-19T02:51:01;14.10;99.90
19164;DHT22;9714;51.208;4.242;2023-11-19T02:53:29;14.00;99.90
19164;DHT22;9714;51.208;4.242;2023-11-19T02:55:56;14.00;99.90
19164;DHT22;9714;51.208;4.242;2023-11-19T02:58:32;13.90;99.90
19164;DHT22;9714;51.208;4.242;2023-11-19T03:01:02;13.90;99.90
19164;DHT22;9714;51.208;4.242;2023-11-19T03:03:39;13.90;99.90
19164;DHT22;9714;51.208;4.242;2023-11-19T03:06:07;14.00;99.90
19164;DHT22;9714;51.208;4.242;2023-11-19T03:08:36;14.00;99.90
19164;DHT22;9714;51.208;4.242;2023-11-19T03:11:04;13.90;99.90
19164;DHT22;9714;51.208;4.242;2023-11-19T03:13:31;13.90;99.90
19164;DHT22;9714;51.208;4.242;2023-11-19T03:16:00;13.90;99.90
19164;DHT22;9714;51.208;4.242;2023-11-19T03:18:36;14.00;99.90
19164;DHT22;9714;51.208;4.242;2023-11-19T03:21:11;14.10;99.90
19164;DHT22;9714;51.208;4.242;2023-11-19T03:23:40;13.90;99.90
19164;DHT22;9714;51.208;4.242;2023-11-19T03:26:07;14.10;99.90
19164;DHT22;9714;51.208;4.242;2023-11-19T03:28:34;14.10;99.90
19164;DHT22;9714;51.208;4.242;2023-11-19T03:31:05;14.00;99.90
19164;DHT22;9714;51.208;4.242;2023-11-19T03:33:35;14.10;99.90
19164;DHT22;9714;51.208;4.242;2023-11-19T03:36:04;14.00;99.90
19164;DHT22;9714;51.208;4.242;2023-11-19T03:38:31;14.00;99.90
19164;DHT22;9714;51.208;4.242;2023-11-19T03:41:00;14.00;99.90
19164;DHT22;9714;51.208;4.242;2023-11-19T03:43:27;14.00;99.90
19164;DHT22;9714;51.208;4.242;2023-11-19T03:45:54;14.00;99.90
19164;DHT22;9714;51.208;4.242;2023-11-19T03:48:21;14.00;99.90
19164;DHT22;9714;51.208;4.242;2023-11-19T03:50:50;13.90;99.90
19164;DHT22;9714;51.208;4.242;2023-11-19T03:53:17;13.90;99.90
19164;DHT22;9714;51.208;4.242;2023-11-19T03:55:46;13.90;99.90
19164;DHT22;9714;51.208;4.242;2023-11-19T03:58:13;13.90;99.90
19164;DHT22;9714;51.208;4.242;2023-11-19T04:00:41;13.90;99.90
19164;DHT22;9714;51.208;4.242;2023-11-19T04:03:08;13.70;99.90
19164;DHT22;9714;51.208;4.242;2023-11-19T04:05:35;13.70;99.90
19164;DHT22;9714;51.208;4.242;2023-11-19T04:08:05;13.80;99.90
19164;DHT22;9714;51.208;4.242;2023-11-19T04:10:32;13.80;99.90
19164;DHT22;9714;51.208;4.242;2023-11-19T04:13:00;13.80;99.90
19164;DHT22;9714;51.208;4.242;2023-11-19T04:15:30;13.70;99.90
19164;DHT22;9714;51.208;4.242;2023-11-19T04:18:00;13.60;99.90
19164;DHT22;9714;51.208;4.242;2023-11-19T04:20:50;13.70;99.90
19164;DHT22;9714;51.208;4.242;2023-11-19T04:23:22;13.60;99.90
19164;DHT22;9714;51.208;4.242;2023-11-19T04:25:51;13.60;99.90
19164;DHT22;9714;51.208;4.242;2023-11-19T04:28:38;13.60;99.90
19164;DHT22;9714;51.208;4.242;2023-11-19T04:31:20;13.40;99.90
19164;DHT22;9714;51.208;4.242;2023-11-19T04:33:54;13.40;99.90
19164;DHT22;9714;51.208;4.242;2023-11-19T04:36:26;13.40;99.90
19164;DHT22;9714;51.208;4.242;2023-11-19T04:39:01;13.30;99.90
19164;DHT22;9714;51.208;4.242;2023-11-19T04:41:29;13.40;99.90
19164;DHT22;9714;51.208;4.242;2023-11-19T04:43:57;13.30;99.90
19164;DHT22;9714;51.208;4.242;2023-11-19T04:46:24;13.40;99.90
19164;DHT22;9714;51.208;4.242;2023-11-19T04:48:52;13.40;99.90
19164;DHT22;9714;51.208;4.242;2023-11-19T04:51:20;13.30;99.90
19164;DHT22;9714;51.208;4.242;2023-11-19T04:53:47;13.30;99.90
19164;DHT22;9714;51.208;4.242;2023-11-19T04:56:16;13.30;99.90
19164;DHT22;9714;51.208;4.242;2023-11-19T04:58:45;13.30;99.90
19164;DHT22;9714;51.208;4.242;2023-11-19T05:01:14;13.30;99.90
19164;DHT22;9714;51.208;4.242;2023-11-19T05:03:43;13.20;99.90
19164;DHT22;9714;51.208;4.242;2023-11-19T05:06:11;13.20;99.90
19164;DHT22;9714;51.208;4.242;2023-11-19T05:08:38;13.20;99.90
19164;DHT22;9714;51.208;4.242;2023-11-19T05:11:05;13.10;99.90
19164;DHT22;9714;51.208;4.242;2023-11-19T05:13:34;13.10;99.90
19164;DHT22;9714;51.208;4.242;2023-11-19T05:16:01;13.00;99.90
19164;DHT22;9714;51.208;4.242;2023-11-19T05:18:28;13.00;99.90
19164;DHT22;9714;51.208;4.242;2023-11-19T05:20:55;13.00;99.90
19164;DHT22;9714;51.208;4.242;2023-11-19T05:23:22;13.00;99.90
19164;DHT22;9714;51.208;4.242;2023-11-19T05:25:50;12.90;99.90
19164;DHT22;9714;51.208;4.242;2023-11-19T05:28:17;13.00;99.90
19164;DHT22;9714;51.208;4.242;2023-11-19T05:30:47;13.00;99.90
19164;DHT22;9714;51.208;4.242;2023-11-19T05:33:15;13.10;99.90
19164;DHT22;9714;51.208;4.242;2023-11-19T05:35:52;13.00;99.90
19164;DHT22;9714;51.208;4.242;2023-11-19T05:38:42;13.00;99.90
19164;DHT22;9714;51.208;4.242;2023-11-19T05:41:33;12.90;99.90
19164;DHT22;9714;51.208;4.242;2023-11-19T05:44:01;12.90;99.90
19164;DHT22;9714;51.208;4.242;2023-11-19T05:46:30;12.80;99.90
19164;DHT22;9714;51.208;4.242;2023-11-19T05:48:57;12.90;99.90
19164;DHT22;9714;51.208;4.242;2023-11-19T05:51:24;12.80;99.90
19164;DHT22;9714;51.208;4.242;2023-11-19T05:53:51;12.90;99.90
19164;DHT22;9714;51.208;4.242;2023-11-19T05:56:21;12.80;99.90
19164;DHT22;9714;51.208;4.242;2023-11-19T05:58:49;12.80;99.90
19164;DHT22;9714;51.208;4.242;2023-11-19T06:01:16;12.90;99.90
19164;DHT22;9714;51.208;4.242;2023-11-19T06:03:46;12.90;99.90
19164;DHT22;9714;51.208;4.242;2023-11-19T06:06:15;12.90;99.90
19164;DHT22;9714;51.208;4.242;2023-11-19T06:08:42;12.90;99.90
19164;DHT22;9714;51.208;4.242;2023-11-19T06:11:10;12.80;99.90
19164;DHT22;9714;51.208;4.242;2023-11-19T06:13:43;12.90;99.90
19164;DHT22;9714;51.208;4.242;2023-11-19T06:16:10;12.80;99.90
19164;DHT22;9714;51.208;4.242;2023-11-19T06:18:38;12.80;99.90
19164;DHT22;9714;51.208;4.242;2023-11-19T06:21:09;12.80;99.90
19164;DHT22;9714;51.208;4.242;2023-11-19T06:23:36;12.80;99.90
19164;DHT22;9714;51.208;4.242;2023-11-19T06:26:04;12.80;99.90
19164;DHT22;9714;51.208;4.242;2023-11-19T06:28:32;12.80;99.90
19164;DHT22;9714;51.208;4.242;2023-11-19T06:30:59;12.70;99.90
19164;DHT22;9714;51.208;4.242;2023-11-19T06:33:27;12.60;99.90
19164;DHT22;9714;51.208;4.242;2023-11-19T06:35:56;12.70;99.90
19164;DHT22;9714;51.208;4.242;2023-11-19T06:38:25;12.70;99.90
19164;DHT22;9714;51.208;4.242;2023-11-19T06:40:53;12.70;99.90
19164;DHT22;9714;51.208;4.242;2023-11-19T06:43:20;12.70;99.90
19164;DHT22;9714;51.208;4.242;2023-11-19T06:45:47;12.60;99.90
19164;DHT22;9714;51.208;4.242;2023-11-19T06:48:15;12.70;99.90
19164;DHT22;9714;51.208;4.242;2023-11-19T06:50:43;12.60;99.90
19164;DHT22;9714;51.208;4.242;2023-11-19T06:53:20;12.50;99.90
19164;DHT22;9714;51.208;4.242;2023-11-19T06:55:56;12.60;99.90
19164;DHT22;9714;51.208;4.242;2023-11-19T06:58:36;12.60;99.90
19164;DHT22;9714;51.208;4.242;2023-11-19T07:01:07;12.60;99.90
19164;DHT22;9714;51.208;4.242;2023-11-19T07:03:35;12.60;99.90
19164;DHT22;9714;51.208;4.242;2023-11-19T07:06:05;12.50;99.90
19164;DHT22;9714;51.208;4.242;2023-11-19T07:08:36;12.50;99.90
19164;DHT22;9714;51.208;4.242;2023-11-19T07:11:06;12.50;99.90
19164;DHT22;9714;51.208;4.242;2023-11-19T07:13:35;12.60;99.90
19164;DHT22;9714;51.208;4.242;2023-11-19T07:16:04;12.50;99.90
19164;DHT22;9714;51.208;4.242;2023-11-19T07:18:32;12.50;99.90
19164;DHT22;9714;51.208;4.242;2023-11-19T07:21:01;12.60;99.90
19164;DHT22;9714;51.208;4.242;2023-11-19T07:23:28;12.50;99.90
19164;DHT22;9714;51.208;4.242;2023-11-19T07:25:56;12.50;99.90
19164;DHT22;9714;51.208;4.242;2023-11-19T07:28:26;12.50;99.90
19164;DHT22;9714;51.208;4.242;2023-11-19T07:30:54;12.60;99.90
19164;DHT22;9714;51.208;4.242;2023-11-19T07:33:22;12.70;99.90
19164;DHT22;9714;51.208;4.242;2023-11-19T07:35:49;12.60;99.90
19164;DHT22;9714;51.208;4.242;2023-11-19T07:38:18;12.50;99.90
19164;DHT22;9714;51.208;4.242;2023-11-19T07:40:47;12.70;99.90
19164;DHT22;9714;51.208;4.242;2023-11-19T07:43:15;12.70;99.90
19164;DHT22;9714;51.208;4.242;2023-11-19T07:45:46;12.70;99.90
19164;DHT22;9714;51.208;4.242;2023-11-19T07:48:15;12.70;99.90
19164;DHT22;9714;51.208;4.242;2023-11-19T07:50:44;12.60;99.90
19164;DHT22;9714;51.208;4.242;2023-11-19T07:53:15;12.60;99.90
19164;DHT22;9714;51.208;4.242;2023-11-19T07:55:43;12.60;99.90
19164;DHT22;9714;51.208;4.242;2023-11-19T07:58:10;12.70;99.90
19164;DHT22;9714;51.208;4.242;2023-11-19T08:00:41;12.70;99.90
19164;DHT22;9714;51.208;4.242;2023-11-19T08:03:11;12.70;99.90
19164;DHT22;9714;51.208;4.242;2023-11-19T08:05:39;12.90;99.90
19164;DHT22;9714;51.208;4.242;2023-11-19T08:08:10;12.80;99.90
19164;DHT22;9714;51.208;4.242;2023-11-19T08:10:42;12.90;99.90
19164;DHT22;9714;51.208;4.242;2023-11-19T08:13:11;13.00;99.90
19164;DHT22;9714;51.208;4.242;2023-11-19T08:15:42;13.10;99.90
19164;DHT22;9714;51.208;4.242;2023-11-19T08:18:17;13.10;99.90
19164;DHT22;9714;51.208;4.242;2023-11-19T08:20:46;13.10;99.90
19164;DHT22;9714;51.208;4.242;2023-11-19T08:23:24;13.00;99.90
19164;DHT22;9714;51.208;4.242;2023-11-19T08:25:56;13.10;99.90
19164;DHT22;9714;51.208;4.242;2023-11-19T08:28:27;13.20;99.90
19164;DHT22;9714;51.208;4.242;2023-11-19T08:30:56;13.30;99.90
19164;DHT22;9714;51.208;4.242;2023-11-19T08:33:31;13.30;99.90
19164;DHT22;9714;51.208;4.242;2023-11-19T08:35:59;13.40;99.90
19164;DHT22;9714;51.208;4.242;2023-11-19T08:38:47;13.40;99.90
19164;DHT22;9714;51.208;4.242;2023-11-19T08:41:24;13.40;99.90
19164;DHT22;9714;51.208;4.242;2023-11-19T08:43:51;13.50;99.90
19164;DHT22;9714;51.208;4.242;2023-11-19T08:46:19;13.60;99.90
19164;DHT22;9714;51.208;4.242;2023-11-19T08:48:48;13.60;99.90
19164;DHT22;9714;51.208;4.242;2023-11-19T08:51:23;13.80;99.90
19164;DHT22;9714;51.208;4.242;2023-11-19T08:53:50;13.70;99.90
19164;DHT22;9714;51.208;4.242;2023-11-19T08:56:23;13.60;99.90
19164;DHT22;9714;51.208;4.242;2023-11-19T08:58:51;13.70;99.90
19164;DHT22;9714;51.208;4.242;2023-11-19T09:01:31;13.70;99.90
19164;DHT22;9714;51.208;4.242;2023-11-19T09:04:02;13.80;99.90
19164;DHT22;9714;51.208;4.242;2023-11-19T09:06:31;14.00;99.90
19164;DHT22;9714;51.208;4.242;2023-11-19T09:09:11;14.10;99.90
19164;DHT22;9714;51.208;4.242;2023-11-19T09:11:58;14.20;99.90
19164;DHT22;9714;51.208;4.242;2023-11-19T09:14:25;14.20;99.90
19164;DHT22;9714;51.208;4.242;2023-11-19T09:20:02;14.60;99.90
19164;DHT22;9714;51.208;4.242;2023-11-19T09:22:31;15.10;99.90
19164;DHT22;9714;51.208;4.242;2023-11-19T09:24:59;15.50;99.90
19164;DHT22;9714;51.208;4.242;2023-11-19T09:27:48;15.90;99.90
19164;DHT22;9714;51.208;4.242;2023-11-19T09:30:18;16.40;99.90
19164;DHT22;9714;51.208;4.242;2023-11-19T09:32:54;16.50;99.90
19164;DHT22;9714;51.208;4.242;2023-11-19T09:35:29;16.90;99.90
19164;DHT22;9714;51.208;4.242;2023-11-19T09:38:12;17.00;99.90
19164;DHT22;9714;51.208;4.242;2023-11-19T09:40:58;16.40;99.90
19164;DHT22;9714;51.208;4.242;2023-11-19T09:43:31;16.30;99.90
19164;DHT22;9714;51.208;4.242;2023-11-19T09:46:05;16.20;99.90
19164;DHT22;9714;51.208;4.242;2023-11-19T09:48:38;16.50;99.90
19164;DHT22;9714;51.208;4.242;2023-11-19T09:51:11;17.00;99.90
19164;DHT22;9714;51.208;4.242;2023-11-19T09:53:41;17.10;99.90
19164;DHT22;9714;51.208;4.242;2023-11-19T09:56:11;17.50;99.90
19164;DHT22;9714;51.208;4.242;2023-11-19T09:58:39;17.40;99.90
19164;DHT22;9714;51.208;4.242;2023-11-19T10:01:13;17.50;99.90
19164;DHT22;9714;51.208;4.242;2023-11-19T10:03:43;17.90;99.90
19164;DHT22;9714;51.208;4.242;2023-11-19T10:06:19;18.10;99.90
19164;DHT22;9714;51.208;4.242;2023-11-19T10:08:50;18.30;99.90
19164;DHT22;9714;51.208;4.242;2023-11-19T10:11:20;18.40;99.90
19164;DHT22;9714;51.208;4.242;2023-11-19T10:13:47;18.20;99.90
19164;DHT22;9714;51.208;4.242;2023-11-19T10:16:18;18.40;99.90
19164;DHT22;9714;51.208;4.242;2023-11-19T10:18:48;17.60;99.90
19164;DHT22;9714;51.208;4.242;2023-11-19T10:21:20;17.00;99.90
19164;DHT22;9714;51.208;4.242;2023-11-19T10:23:49;16.20;99.90
19164;DHT22;9714;51.208;4.242;2023-11-19T10:26:18;15.60;99.90
19164;DHT22;9714;51.208;4.242;2023-11-19T10:28:52;15.10;99.90
19164;DHT22;9714;51.208;4.242;2023-11-19T10:31:29;14.70;99.90
19164;DHT22;9714;51.208;4.242;2023-11-19T10:34:00;14.40;99.90
19164;DHT22;9714;51.208;4.242;2023-11-19T10:36:42;14.40;99.90
19164;DHT22;9714;51.208;4.242;2023-11-19T10:42:19;14.50;99.90
19164;DHT22;9714;51.208;4.242;2023-11-19T10:45:02;14.50;99.90
19164;DHT22;9714;51.208;4.242;2023-11-19T10:47:53;14.60;99.90
19164;DHT22;9714;51.208;4.242;2023-11-19T10:50:54;15.00;99.90
19164;DHT22;9714;51.208;4.242;2023-11-19T10:53:49;15.40;99.90
19164;DHT22;9714;51.208;4.242;2023-11-19T10:56:39;16.00;99.90
19164;DHT22;9714;51.208;4.242;2023-11-19T10:59:08;15.90;99.90
19164;DHT22;9714;51.208;4.242;2023-11-19T11:01:43;16.10;99.90
19164;DHT22;9714;51.208;4.242;2023-11-19T11:04:13;16.20;99.90
19164;DHT22;9714;51.208;4.242;2023-11-19T11:06:43;15.90;99.90
19164;DHT22;9714;51.208;4.242;2023-11-19T11:09:14;15.50;99.90
19164;DHT22;9714;51.208;4.242;2023-11-19T11:11:46;15.50;99.90
19164;DHT22;9714;51.208;4.242;2023-11-19T11:14:14;15.40;99.90
19164;DHT22;9714;51.208;4.242;2023-11-19T11:16:43;15.50;99.90
19164;DHT22;9714;51.208;4.242;2023-11-19T11:19:12;15.70;99.90
19164;DHT22;9714;51.208;4.242;2023-11-19T11:21:46;15.80;99.90
19164;DHT22;9714;51.208;4.242;2023-11-19T11:27:48;15.60;99.90
19164;DHT22;9714;51.208;4.242;2023-11-19T11:30:28;15.80;99.90
19164;DHT22;9714;51.208;4.242;2023-11-19T11:33:06;15.80;99.90
19164;DHT22;9714;51.208;4.242;2023-11-19T11:35:45;15.90;99.90
19164;DHT22;9714;51.208;4.242;2023-11-19T11:38:22;16.00;99.90
19164;DHT22;9714;51.208;4.242;2023-11-19T11:41:17;16.20;99.90
19164;DHT22;9714;51.208;4.242;2023-11-19T11:43:47;16.30;99.90
19164;DHT22;9714;51.208;4.242;2023-11-19T11:49:27;16.10;99.90
19164;DHT22;9714;51.208;4.242;2023-11-19T11:52:03;15.90;99.90
19164;DHT22;9714;51.208;4.242;2023-11-19T11:54:41;15.60;99.90
19164;DHT22;9714;51.208;4.242;2023-11-19T11:57:16;15.50;99.90
19164;DHT22;9714;51.208;4.242;2023-11-19T12:00:10;15.30;99.90
19164;DHT22;9714;51.208;4.242;2023-11-19T12:02:39;15.00;99.90
19164;DHT22;9714;51.208;4.242;2023-11-19T12:08:39;14.40;99.90
19164;DHT22;9714;51.208;4.242;2023-11-19T12:11:23;14.20;99.90
19164;DHT22;9714;51.208;4.242;2023-11-19T12:18:24;13.90;99.90
19164;DHT22;9714;51.208;4.242;2023-11-19T12:24:59;13.80;99.90
19164;DHT22;9714;51.208;4.242;2023-11-19T12:27:29;14.10;99.90
19164;DHT22;9714;51.208;4.242;2023-11-19T12:30:53;14.20;99.90
19164;DHT22;9714;51.208;4.242;2023-11-19T12:33:40;14.20;99.90
19164;DHT22;9714;51.208;4.242;2023-11-19T12:36:37;14.40;99.90
19164;DHT22;9714;51.208;4.242;2023-11-19T12:39:38;14.50;99.90
19164;DHT22;9714;51.208;4.242;2023-11-19T12:42:45;14.40;99.90
19164;DHT22;9714;51.208;4.242;2023-11-19T12:45:51;14.50;99.90
19164;DHT22;9714;51.208;4.242;2023-11-19T12:49:07;14.70;99.90
19164;DHT22;9714;51.208;4.242;2023-11-19T12:55:54;14.90;99.90
19164;DHT22;9714;51.208;4.242;2023-11-19T13:01:55;15.10;99.90
19164;DHT22;9714;51.208;4.242;2023-11-19T13:04:33;15.00;99.90
19164;DHT22;9714;51.208;4.242;2023-11-19T13:07:24;15.00;99.90
19164;DHT22;9714;51.208;4.242;2023-11-19T13:10:27;14.80;99.90
19164;DHT22;9714;51.208;4.242;2023-11-19T13:24:44;14.30;99.90
19164;DHT22;9714;51.208;4.242;2023-11-19T13:27:22;14.30;99.90
19164;DHT22;9714;51.208;4.242;2023-11-19T13:30:10;14.90;99.90
19164;DHT22;9714;51.208;4.242;2023-11-19T13:32:49;15.40;99.90
19164;DHT22;9714;51.208;4.242;2023-11-19T13:35:38;15.60;99.90
19164;DHT22;9714;51.208;4.242;2023-11-19T13:38:36;15.50;99.90
19164;DHT22;9714;51.208;4.242;2023-11-19T13:41:09;15.10;99.90
19164;DHT22;9714;51.208;4.242;2023-11-19T13:43:40;15.00;99.90
19164;DHT22;9714;51.208;4.242;2023-11-19T13:46:10;14.80;99.90
19164;DHT22;9714;51.208;4.242;2023-11-19T13:48:38;14.80;99.90
19164;DHT22;9714;51.208;4.242;2023-11-19T13:51:06;14.80;99.90
19164;DHT22;9714;51.208;4.242;2023-11-19T13:53:46;14.60;99.90
19164;DHT22;9714;51.208;4.242;2023-11-19T13:56:17;14.50;99.90
19164;DHT22;9714;51.208;4.242;2023-11-19T13:58:45;14.40;99.90
19164;DHT22;9714;51.208;4.242;2023-11-19T14:01:13;14.30;99.90
19164;DHT22;9714;51.208;4.242;2023-11-19T14:03:40;14.40;99.90
19164;DHT22;9714;51.208;4.242;2023-11-19T14:06:09;14.30;99.90
19164;DHT22;9714;51.208;4.242;2023-11-19T14:08:39;14.40;99.90
19164;DHT22;9714;51.208;4.242;2023-11-19T14:11:07;14.40;99.90
19164;DHT22;9714;51.208;4.242;2023-11-19T14:13:35;14.30;99.90
19164;DHT22;9714;51.208;4.242;2023-11-19T14:16:03;14.10;99.90
19164;DHT22;9714;51.208;4.242;2023-11-19T14:18:34;14.10;99.90
19164;DHT22;9714;51.208;4.242;2023-11-19T14:21:02;14.00;99.90
19164;DHT22;9714;51.208;4.242;2023-11-19T14:23:31;14.10;99.90
19164;DHT22;9714;51.208;4.242;2023-11-19T14:26:00;14.00;99.90
19164;DHT22;9714;51.208;4.242;2023-11-19T14:28:29;14.00;99.90
19164;DHT22;9714;51.208;4.242;2023-11-19T14:31:02;14.20;99.90
19164;DHT22;9714;51.208;4.242;2023-11-19T14:33:32;14.30;99.90
19164;DHT22;9714;51.208;4.242;2023-11-19T14:36:15;14.30;99.90
19164;DHT22;9714;51.208;4.242;2023-11-19T14:38:45;14.40;99.90
19164;DHT22;9714;51.208;4.242;2023-11-19T14:41:15;14.50;99.90
19164;DHT22;9714;51.208;4.242;2023-11-19T14:43:42;14.40;99.90
19164;DHT22;9714;51.208;4.242;2023-11-19T14:46:10;14.30;99.90
19164;DHT22;9714;51.208;4.242;2023-11-19T14:48:38;14.10;99.90
19164;DHT22;9714;51.208;4.242;2023-11-19T14:51:08;13.90;99.90
19164;DHT22;9714;51.208;4.242;2023-11-19T14:53:41;13.80;99.90
19164;DHT22;9714;51.208;4.242;2023-11-19T14:56:11;13.80;99.90
19164;DHT22;9714;51.208;4.242;2023-11-19T14:58:41;13.80;99.90
19164;DHT22;9714;51.208;4.242;2023-11-19T15:01:12;13.80;99.90
19164;DHT22;9714;51.208;4.242;2023-11-19T15:03:39;13.70;99.90
19164;DHT22;9714;51.208;4.242;2023-11-19T15:06:07;13.60;99.90
19164;DHT22;9714;51.208;4.242;2023-11-19T15:08:58;13.60;99.90
19164;DHT22;9714;51.208;4.242;2023-11-19T15:11:26;13.50;99.90
19164;DHT22;9714;51.208;4.242;2023-11-19T15:13:55;13.50;99.90
19164;DHT22;9714;51.208;4.242;2023-11-19T15:16:22;13.60;99.90
19164;DHT22;9714;51.208;4.242;2023-11-19T15:18:56;13.50;99.90
19164;DHT22;9714;51.208;4.242;2023-11-19T15:21:26;13.50;99.90
19164;DHT22;9714;51.208;4.242;2023-11-19T15:23:56;13.60;99.90
19164;DHT22;9714;51.208;4.242;2023-11-19T15:26:23;13.60;99.90
19164;DHT22;9714;51.208;4.242;2023-11-19T15:28:52;13.60;99.90
19164;DHT22;9714;51.208;4.242;2023-11-19T15:31:24;13.70;99.90
19164;DHT22;9714;51.208;4.242;2023-11-19T15:33:52;13.70;99.90
19164;DHT22;9714;51.208;4.242;2023-11-19T15:36:22;13.60;99.90
19164;DHT22;9714;51.208;4.242;2023-11-19T15:38:49;13.70;99.90
19164;DHT22;9714;51.208;4.242;2023-11-19T15:41:16;13.50;99.90
19164;DHT22;9714;51.208;4.242;2023-11-19T15:43:44;13.50;99.90
19164;DHT22;9714;51.208;4.242;2023-11-19T15:46:11;13.50;99.90
19164;DHT22;9714;51.208;4.242;2023-11-19T15:48:43;13.30;99.90
19164;DHT22;9714;51.208;4.242;2023-11-19T15:51:11;13.10;99.90
19164;DHT22;9714;51.208;4.242;2023-11-19T15:53:39;13.10;99.90
19164;DHT22;9714;51.208;4.242;2023-11-19T15:56:09;13.20;99.90
19164;DHT22;9714;51.208;4.242;2023-11-19T15:58:37;13.10;99.90
19164;DHT22;9714;51.208;4.242;2023-11-19T16:01:06;13.10;99.90
19164;DHT22;9714;51.208;4.242;2023-11-19T16:03:34;13.10;99.90
19164;DHT22;9714;51.208;4.242;2023-11-19T16:06:03;13.10;99.90
19164;DHT22;9714;51.208;4.242;2023-11-19T16:08:37;13.10;99.90
19164;DHT22;9714;51.208;4.242;2023-11-19T16:11:06;13.10;99.90
19164;DHT22;9714;51.208;4.242;2023-11-19T16:13:35;13.10;99.90
19164;DHT22;9714;51.208;4.242;2023-11-19T16:16:03;13.10;99.90
19164;DHT22;9714;51.208;4.242;2023-11-19T16:18:30;13.00;99.90
19164;DHT22;9714;51.208;4.242;2023-11-19T16:20:58;13.10;99.90
19164;DHT22;9714;51.208;4.242;2023-11-19T16:23:26;13.10;99.90
19164;DHT22;9714;51.208;4.242;2023-11-19T16:26:00;13.00;99.90
19164;DHT22;9714;51.208;4.242;2023-11-19T16:28:28;13.20;99.90
19164;DHT22;9714;51.208;4.242;2023-11-19T16:30:56;13.10;99.90
19164;DHT22;9714;51.208;4.242;2023-11-19T16:33:24;13.10;99.90
19164;DHT22;9714;51.208;4.242;2023-11-19T16:35:52;13.20;99.90
19164;DHT22;9714;51.208;4.242;2023-11-19T16:38:19;13.20;99.90
19164;DHT22;9714;51.208;4.242;2023-11-19T16:40:47;13.10;99.90
19164;DHT22;9714;51.208;4.242;2023-11-19T16:43:24;13.10;99.90
19164;DHT22;9714;51.208;4.242;2023-11-19T16:45:54;13.10;99.90
19164;DHT22;9714;51.208;4.242;2023-11-19T16:48:27;13.10;99.90
19164;DHT22;9714;51.208;4.242;2023-11-19T16:50:56;13.00;99.90
19164;DHT22;9714;51.208;4.242;2023-11-19T16:53:29;12.90;99.90
19164;DHT22;9714;51.208;4.242;2023-11-19T16:55:59;13.10;99.90
19164;DHT22;9714;51.208;4.242;2023-11-19T16:58:28;13.10;99.90
19164;DHT22;9714;51.208;4.242;2023-11-19T17:00:56;13.20;99.90
19164;DHT22;9714;51.208;4.242;2023-11-19T17:03:23;13.20;99.90